Observation data for Turkey on 06/25/2019      Previous  Date  Next       Current Mesonet Observations  Soil Data  Daily Summary Page  Observations in Plain Language
KTUR 250500Z 10011KT 24/17 A2994 RMK A01 T02400172  RH  067%=      5-min Rain = 0
KTUR 250505Z 10011KT 24/17 A2994 RMK A01 T02390174  RH  069%=      5-min Rain = 0
KTUR 250510Z 10011KT 24/18 A2994 RMK A01 T02390177  RH  070%=      5-min Rain = 0
KTUR 250515Z 10012G19KT 24/18 A2994 RMK A01 T02380181  RH  072%=      5-min Rain = 0
KTUR 250520Z 11012KT 24/18 A2994 RMK A01 T02390183  RH  073%=      5-min Rain = 0
KTUR 250525Z 11013KT 24/19 A2994 RMK A01 T02390186  RH  074%=      5-min Rain = 0
KTUR 250530Z 11012KT 24/19 A2994 RMK A01 T02390187  RH  075%=      5-min Rain = 0
KTUR 250535Z 11012KT 24/19 A2994 RMK A01 T02380187  RH  075%=      5-min Rain = 0
KTUR 250540Z 11012KT 24/19 A2994 RMK A01 T02380188  RH  076%=      5-min Rain = 0
KTUR 250545Z 11011KT 24/19 A2994 RMK A01 T02370188  RH  076%=      5-min Rain = 0
KTUR 250550Z 11010KT 24/19 A2994 RMK A01 T02360189  RH  077%=      5-min Rain = 0
KTUR 250555Z 11009KT 23/19 A2994 RMK A01 T02340189  RH  078%=      5-min Rain = 0
KTUR 250600Z 11009KT 23/19 A2993 RMK A01 T02320189  RH  078%=      5-min Rain = 0
KTUR 250605Z 11009KT 23/19 A2993 RMK A01 T02320189  RH  079%=      5-min Rain = 0
KTUR 250610Z 10009KT 23/19 A2993 RMK A01 T02310190  RH  080%=      5-min Rain = 0
KTUR 250615Z 10008KT 23/19 A2993 RMK A01 T02310190  RH  080%=      5-min Rain = 0
KTUR 250620Z 10007KT 23/19 A2993 RMK A01 T02310191  RH  080%=      5-min Rain = 0
KTUR 250625Z 11008KT 23/19 A2993 RMK A01 T02310191  RH  080%=      5-min Rain = 0
KTUR 250630Z 11008KT 23/19 A2993 RMK A01 T02310192  RH  081%=      5-min Rain = 0
KTUR 250635Z 10008KT 23/19 A2993 RMK A01 T02300192  RH  081%=      5-min Rain = 0
KTUR 250640Z 11008KT 23/19 A2993 RMK A01 T02290192  RH  082%=      5-min Rain = 0
KTUR 250645Z 11008KT 23/19 A2993 RMK A01 T02290193  RH  082%=      5-min Rain = 0
KTUR 250650Z 11007KT 23/19 A2993 RMK A01 T02310194  RH  082%=      5-min Rain = 0
KTUR 250655Z 09006KT 23/19 A2993 RMK A01 T02300193  RH  082%=      5-min Rain = 0
KTUR 250700Z 09008KT 23/19 A2993 RMK A01 T02280193  RH  083%=      5-min Rain = 0
KTUR 250705Z 09007KT 23/19 A2993 RMK A01 T02280194  RH  083%=      5-min Rain = 0
KTUR 250710Z 09007KT 23/19 A2993 RMK A01 T02270194  RH  084%=      5-min Rain = 0
KTUR 250715Z 09007KT 23/19 A2993 RMK A01 T02270194  RH  084%=      5-min Rain = 0
KTUR 250720Z 09007KT 23/20 A2993 RMK A01 T02270195  RH  084%=      5-min Rain = 0
KTUR 250725Z 09007KT 23/20 A2993 RMK A01 T02270195  RH  084%=      5-min Rain = 0
KTUR 250730Z 09007KT 23/20 A2993 RMK A01 T02270195  RH  084%=      5-min Rain = 0
KTUR 250735Z 09008KT 23/20 A2993 RMK A01 T02270196  RH  085%=      5-min Rain = 0
KTUR 250740Z 09008KT 23/20 A2993 RMK A01 T02270196  RH  085%=      5-min Rain = 0
KTUR 250745Z 09007KT 23/20 A2993 RMK A01 T02260196  RH  085%=      5-min Rain = 0
KTUR 250750Z 09007KT 23/20 A2993 RMK A01 T02250196  RH  086%=      5-min Rain = 0
KTUR 250755Z 09007KT 23/20 A2993 RMK A01 T02250196  RH  086%=      5-min Rain = 0
KTUR 250800Z 09006KT 22/20 A2993 RMK A01 T02240195  RH  086%=      5-min Rain = 0
KTUR 250805Z 10006KT 22/20 A2993 RMK A01 T02220196  RH  087%=      5-min Rain = 0
KTUR 250810Z 10006KT 22/20 A2993 RMK A01 T02210195  RH  088%=      5-min Rain = 0
KTUR 250815Z 10005KT 22/20 A2993 RMK A01 T02200195  RH  088%=      5-min Rain = 0
KTUR 250820Z 09004KT 22/20 A2994 RMK A01 T02190195  RH  088%=      5-min Rain = 0
KTUR 250825Z 09005KT 22/19 A2994 RMK A01 T02170194  RH  089%=      5-min Rain = 0
KTUR 250830Z 10004KT 22/20 A2994 RMK A01 T02170195  RH  090%=      5-min Rain = 0
KTUR 250835Z 10005KT 22/19 A2994 RMK A01 T02160194  RH  090%=      5-min Rain = 0
KTUR 250840Z 09005KT 21/19 A2994 RMK A01 T02140194  RH  091%=      5-min Rain = 0
KTUR 250845Z 08005KT 21/19 A2994 RMK A01 T02130194  RH  091%=      5-min Rain = 0
KTUR 250850Z 08005KT 21/19 A2994 RMK A01 T02110192  RH  091%=      5-min Rain = 0
KTUR 250855Z 08006KT 21/19 A2994 RMK A01 T02100192  RH  092%=      5-min Rain = 0
KTUR 250900Z 09005KT 21/19 A2994 RMK A01 T02100192  RH  092%=      5-min Rain = 0
KTUR 250905Z 09005KT 21/19 A2994 RMK A01 T02100192  RH  092%=      5-min Rain = 0
KTUR 250910Z 09005KT 21/19 A2994 RMK A01 T02080191  RH  092%=      5-min Rain = 0
KTUR 250915Z 09004KT 21/19 A2994 RMK A01 T02080192  RH  093%=      5-min Rain = 0
KTUR 250920Z 10005KT 21/19 A2994 RMK A01 T02080193  RH  093%=      5-min Rain = 0
KTUR 250925Z 10005KT 21/19 A2994 RMK A01 T02090194  RH  094%=      5-min Rain = 0
KTUR 250930Z 10005KT 21/19 A2994 RMK A01 T02080194  RH  094%=      5-min Rain = 0
KTUR 250935Z 10005KT 21/19 A2994 RMK A01 T02080194  RH  094%=      5-min Rain = 0
KTUR 250940Z 11005KT 21/19 A2995 RMK A01 T02070194  RH  095%=      5-min Rain = 0
KTUR 250945Z 10004KT 21/19 A2995 RMK A01 T02070194  RH  095%=      5-min Rain = 0
KTUR 250950Z 10005KT 21/19 A2995 RMK A01 T02060194  RH  095%=      5-min Rain = 0
KTUR 250955Z 10005KT 21/19 A2995 RMK A01 T02060194  RH  095%=      5-min Rain = 0
KTUR 251000Z 09005KT 21/19 A2995 RMK A01 T02050193  RH  096%=      5-min Rain = 0
KTUR 251005Z 09006KT 20/19 A2995 RMK A01 T02040193  RH  096%=      5-min Rain = 0
KTUR 251010Z 09005KT 20/19 A2995 RMK A01 T02040194  RH  096%=      5-min Rain = 0
KTUR 251015Z 10005KT 20/19 A2995 RMK A01 T02030193  RH  096%=      5-min Rain = 0
KTUR 251020Z 09006KT 20/19 A2995 RMK A01 T02030193  RH  096%=      5-min Rain = 0
KTUR 251025Z 09005KT 20/19 A2995 RMK A01 T02030193  RH  096%=      5-min Rain = 0
KTUR 251030Z 09005KT 20/19 A2995 RMK A01 T02020192  RH  097%=      5-min Rain = 0
KTUR 251035Z 08005KT 20/19 A2995 RMK A01 T02010191  RH  097%=      5-min Rain = 0
KTUR 251040Z 08005KT 20/19 A2995 RMK A01 T02000190  RH  097%=      5-min Rain = 0
KTUR 251045Z 08005KT 20/19 A2996 RMK A01 T01990190  RH  097%=      5-min Rain = 0
KTUR 251050Z 09005KT 20/19 A2996 RMK A01 T01990190  RH  097%=      5-min Rain = 0
KTUR 251055Z 11005KT 20/19 A2996 RMK A01 T02010192  RH  097%=      5-min Rain = 0
KTUR 251100Z 11004KT 20/19 A2997 RMK A01 T02020194  RH  097%=      5-min Rain = 0
KTUR 251105Z 12005KT 20/19 A2997 RMK A01 T02030194  RH  097%=      5-min Rain = 0
KTUR 251110Z 14006KT 20/19 A2997 RMK A01 T02020193  RH  097%=      5-min Rain = 0
KTUR 251115Z 14005KT 20/19 A2997 RMK A01 T02000191  RH  097%=      5-min Rain = 0
KTUR 251120Z 13005KT 20/19 A2998 RMK A01 T01980190  RH  097%=      5-min Rain = 0
KTUR 251125Z 13004KT 20/19 A2998 RMK A01 T01970188  RH  097%=      5-min Rain = 0
KTUR 251130Z 14004KT 20/19 A2997 RMK A01 T01960187  RH  097%=      5-min Rain = 0
KTUR 251135Z 13004KT 20/19 A2998 RMK A01 T01950186  RH  097%=      5-min Rain = 0
KTUR 251140Z 13003KT 19/19 A2998 RMK A01 T01940185  RH  097%=      5-min Rain = 0
KTUR 251145Z 13003KT 19/19 A2998 RMK A01 T01930185  RH  098%=      5-min Rain = 0
KTUR 251150Z 14003KT 19/19 A2998 RMK A01 T01930185  RH  098%=      5-min Rain = 0
KTUR 251155Z 17004KT 19/18 A2998 RMK A01 T01920184  RH  097%=      5-min Rain = 0
KTUR 251200Z 20004KT 19/18 A2998 RMK A01 T01880179  RH  097%=      5-min Rain = 0
KTUR 251205Z 20004KT 19/18 A2998 RMK A01 T01870180  RH  098%=      5-min Rain = 0
KTUR 251210Z 23004KT 19/18 A2998 RMK A01 T01870180  RH  098%=      5-min Rain = 0
KTUR 251215Z 24003KT 19/18 A2998 RMK A01 T01880181  RH  098%=      5-min Rain = 0
KTUR 251220Z 22002KT 19/18 A2998 RMK A01 T01890182  RH  098%=      5-min Rain = 0
KTUR 251225Z 23002KT 19/18 A2998 RMK A01 T01910184  RH  098%=      5-min Rain = 0
KTUR 251230Z 24002KT 19/19 A2998 RMK A01 T01920186  RH  098%=      5-min Rain = 0
KTUR 251235Z 22002KT 19/19 A2998 RMK A01 T01940187  RH  098%=      5-min Rain = 0
KTUR 251240Z 23002KT 20/19 A2998 RMK A01 T01950189  RH  098%=      5-min Rain = 0
KTUR 251245Z 26002KT 20/19 A2998 RMK A01 T01970190  RH  099%=      5-min Rain = 0
KTUR 251250Z 33002KT 20/19 A2998 RMK A01 T01990192  RH  098%=      5-min Rain = 0
KTUR 251255Z 01002KT 20/19 A2998 RMK A01 T01980191  RH  098%=      5-min Rain = 0
KTUR 251300Z 01000KT 20/20 A2999 RMK A01 T02020195  RH  098%=      5-min Rain = 0
KTUR 251305Z 31002KT 20/19 A2999 RMK A01 T02030194  RH  097%=      5-min Rain = 0
KTUR 251310Z 30001KT 21/19 A2999 RMK A01 T02050193  RH  096%=      5-min Rain = 0
KTUR 251315Z 34000KT 21/19 A2999 RMK A01 T02090194  RH  093%=      5-min Rain = 0
KTUR 251320Z 21000KT 21/19 A2999 RMK A01 T02140188  RH  088%=      5-min Rain = 0
KTUR 251325Z 20001KT 22/18 A2999 RMK A01 T02180184  RH  083%=      5-min Rain = 0
KTUR 251330Z 18003KT 22/18 A2999 RMK A01 T02190179  RH  080%=      5-min Rain = 0
KTUR 251335Z 19001KT 22/17 A2999 RMK A01 T02210173  RH  076%=      5-min Rain = 0
KTUR 251340Z 18002KT 23/17 A30 RMK A01 T02260168  RH  072%=      5-min Rain = 0
KTUR 251345Z 17002KT 23/17 A30 RMK A01 T02290166  RH  069%=      5-min Rain = 0
KTUR 251350Z 16004KT 23/17 A30 RMK A01 T02290166  RH  069%=      5-min Rain = 0
KTUR 251355Z 13003KT 23/17 A30 RMK A01 T02320167  RH  068%=      5-min Rain = 0
KTUR 251400Z 12004KT 23/17 A3001 RMK A01 T02340166  RH  067%=      5-min Rain = 0
KTUR 251405Z 15003KT 24/16 A3001 RMK A01 T02370163  RH  065%=      5-min Rain = 0
KTUR 251410Z 19003KT 24/16 A3001 RMK A01 T02370161  RH  064%=      5-min Rain = 0
KTUR 251415Z 22004KT 24/16 A30 RMK A01 T02380157  RH  062%=      5-min Rain = 0
KTUR 251420Z 20003KT 24/16 A3001 RMK A01 T02380157  RH  062%=      5-min Rain = 0
KTUR 251425Z 20003KT 24/16 A3001 RMK A01 T02410159  RH  062%=      5-min Rain = 0
KTUR 251430Z 25004KT 24/16 A3001 RMK A01 T02420158  RH  061%=      5-min Rain = 0
KTUR 251435Z 23002KT 24/16 A3001 RMK A01 T02430159  RH  061%=      5-min Rain = 0
KTUR 251440Z 17004KT 25/16 A3001 RMK A01 T02470162  RH  061%=      5-min Rain = 0
KTUR 251445Z 17002KT 25/16 A3001 RMK A01 T02470161  RH  060%=      5-min Rain = 0
KTUR 251450Z 18004KT 25/16 A3001 RMK A01 T02500161  RH  059%=      5-min Rain = 0
KTUR 251455Z 15006KT 25/16 A3001 RMK A01 T02520163  RH  059%=      5-min Rain = 0
KTUR 251500Z 18006KT 25/16 A3001 RMK A01 T02500161  RH  059%=      5-min Rain = 0
KTUR 251505Z 17003KT 25/16 A3001 RMK A01 T02510162  RH  059%=      5-min Rain = 0
KTUR 251510Z 18005KT 25/16 A3001 RMK A01 T02530161  RH  058%=      5-min Rain = 0
KTUR 251515Z 19007KT 26/16 A3001 RMK A01 T02570160  RH  057%=      5-min Rain = 0
KTUR 251520Z 20004KT 26/16 A30 RMK A01 T02570159  RH  056%=      5-min Rain = 0
KTUR 251525Z 19006G11KT 26/16 A30 RMK A01 T02600159  RH  055%=      5-min Rain = 0
KTUR 251530Z 21007KT 26/16 A30 RMK A01 T02620157  RH  054%=      5-min Rain = 0
KTUR 251535Z 21008KT 27/16 A30 RMK A01 T02650157  RH  053%=      5-min Rain = 0
KTUR 251540Z 20008KT 27/16 A30 RMK A01 T02680157  RH  052%=      5-min Rain = 0
KTUR 251545Z 19008KT 27/16 A30 RMK A01 T02670156  RH  052%=      5-min Rain = 0
KTUR 251550Z 22005G10KT 27/16 A30 RMK A01 T02700155  RH  050%=      5-min Rain = 0
KTUR 251555Z 19006KT 27/16 A2999 RMK A01 T02710156  RH  050%=      5-min Rain = 0
KTUR 251600Z 23006KT 27/16 A2999 RMK A01 T02740155  RH  049%=      5-min Rain = 0
KTUR 251605Z 19006KT 28/16 A2999 RMK A01 T02760156  RH  049%=      5-min Rain = 0
KTUR 251610Z 20006G11KT 28/16 A2999 RMK A01 T02790157  RH  048%=      5-min Rain = 0
KTUR 251615Z 22005G11KT 28/16 A2999 RMK A01 T02790156  RH  048%=      5-min Rain = 0
KTUR 251620Z 22007KT 28/16 A2999 RMK A01 T02820155  RH  047%=      5-min Rain = 0
KTUR 251625Z 23007KT 28/16 A2999 RMK A01 T02840157  RH  047%=      5-min Rain = 0
KTUR 251630Z 21006KT 29/16 A2999 RMK A01 T02850157  RH  047%=      5-min Rain = 0
KTUR 251635Z 26005KT 29/16 A2999 RMK A01 T02880157  RH  046%=      5-min Rain = 0
KTUR 251640Z 22005KT 29/16 A2999 RMK A01 T02900159  RH  046%=      5-min Rain = 0
KTUR 251645Z 26006KT 29/16 A2999 RMK A01 T02920158  RH  045%=      5-min Rain = 0
KTUR 251650Z 22003G8KT 29/16 A2999 RMK A01 T02940161  RH  045%=      5-min Rain = 0
KTUR 251655Z 19006G13KT 30/16 A2999 RMK A01 T02960161  RH  045%=      5-min Rain = 0
KTUR 251700Z 17001KT 30/16 A2999 RMK A01 T02970161  RH  045%=      5-min Rain = 0
KTUR 251705Z 16007KT 30/16 A2999 RMK A01 T03020164  RH  044%=      5-min Rain = 0
KTUR 251710Z 16005G10KT 30/16 A2999 RMK A01 T03010162  RH  044%=      5-min Rain = 0
KTUR 251715Z 18006G11KT 30/16 A2999 RMK A01 T03000161  RH  044%=      5-min Rain = 0
KTUR 251720Z 16006G11KT 30/16 A2999 RMK A01 T03020161  RH  044%=      5-min Rain = 0
KTUR 251725Z 17003KT 30/16 A2999 RMK A01 T03020162  RH  044%=      5-min Rain = 0
KTUR 251730Z 19004G9KT 31/16 A2999 RMK A01 T03050164  RH  044%=      5-min Rain = 0
KTUR 251735Z 15007KT 31/17 A2999 RMK A01 T03080165  RH  043%=      5-min Rain = 0
KTUR 251740Z 20003KT 31/16 A2999 RMK A01 T03060161  RH  043%=      5-min Rain = 0
KTUR 251745Z 19007KT 31/16 A2998 RMK A01 T03100162  RH  042%=      5-min Rain = 0
KTUR 251750Z 19003KT 31/16 A2998 RMK A01 T03100162  RH  042%=      5-min Rain = 0
KTUR 251755Z 16004KT 31/16 A2998 RMK A01 T03140163  RH  041%=      5-min Rain = 0
KTUR 251800Z 15005KT 31/16 A2998 RMK A01 T03130161  RH  041%=      5-min Rain = 0
KTUR 251805Z 16007KT 31/16 A2998 RMK A01 T03140159  RH  040%=      5-min Rain = 0
KTUR 251810Z 17004KT 31/16 A2998 RMK A01 T03140160  RH  040%=      5-min Rain = 0
KTUR 251815Z 18006G11KT 32/16 A2998 RMK A01 T03170157  RH  039%=      5-min Rain = 0
KTUR 251820Z 20005KT 32/16 A2998 RMK A01 T03170157  RH  039%=      5-min Rain = 0
KTUR 251825Z 20005KT 32/16 A2998 RMK A01 T03200162  RH  040%=      5-min Rain = 0
KTUR 251830Z 14006KT 33/16 A2998 RMK A01 T03250162  RH  039%=      5-min Rain = 0
KTUR 251835Z 14010KT 33/16 A2997 RMK A01 T03280161  RH  038%=      5-min Rain = 0
KTUR 251840Z 13006KT 33/16 A2997 RMK A01 T03290162  RH  038%=      5-min Rain = 0
KTUR 251845Z 14003KT 33/16 A2997 RMK A01 T03260156  RH  037%=      5-min Rain = 0
KTUR 251850Z 14008G14KT 33/16 A2997 RMK A01 T03300160  RH  037%=      5-min Rain = 0
KTUR 251855Z 15006G11KT 33/16 A2997 RMK A01 T03330162  RH  037%=      5-min Rain = 0
KTUR 251900Z 14002G11KT 33/16 A2997 RMK A01 T03320157  RH  036%=      5-min Rain = 0
KTUR 251905Z 16007G12KT 33/15 A2997 RMK A01 T03340153  RH  034%=      5-min Rain = 0
KTUR 251910Z 17009KT 34/15 A2997 RMK A01 T03370150  RH  033%=      5-min Rain = 0
KTUR 251915Z 16008G13KT 34/15 A2997 RMK A01 T03420154  RH  033%=      5-min Rain = 0
KTUR 251920Z 14007G14KT 34/15 A2997 RMK A01 T03390151  RH  033%=      5-min Rain = 0
KTUR 251925Z 14006G14KT 34/15 A2996 RMK A01 T03370152  RH  034%=      5-min Rain = 0
KTUR 251930Z 11010G17KT 34/15 A2996 RMK A01 T03410145  RH  032%=      5-min Rain = 0
KTUR 251935Z 13010G16KT 34/14 A2996 RMK A01 T03420142  RH  031%=      5-min Rain = 0
KTUR 251940Z 13009G15KT 34/14 A2996 RMK A01 T03420141  RH  031%=      5-min Rain = 0
KTUR 251945Z 15010G20KT 35/15 A2996 RMK A01 T03450146  RH  031%=      5-min Rain = 0
KTUR 251950Z 12010KT 35/15 A2996 RMK A01 T03450151  RH  032%=      5-min Rain = 0
KTUR 251955Z 12006G14KT 34/15 A2996 RMK A01 T03400149  RH  032%=      5-min Rain = 0
KTUR 252000Z 17005KT 34/15 A2995 RMK A01 T03410150  RH  033%=      5-min Rain = 0
KTUR 252005Z 13011G18KT 34/15 A2995 RMK A01 T03440149  RH  032%=      5-min Rain = 0
KTUR 252010Z 13013G19KT 35/15 A2995 RMK A01 T03470148  RH  031%=      5-min Rain = 0
KTUR 252015Z 11011G24KT 35/15 A2994 RMK A01 T03460149  RH  031%=      5-min Rain = 0
KTUR 252020Z 13013G21KT 35/15 A2994 RMK A01 T03480145  RH  030%=      5-min Rain = 0
KTUR 252025Z 14010G18KT 35/15 A2994 RMK A01 T03500148  RH  031%=      5-min Rain = 0
KTUR 252030Z 13013G18KT 35/15 A2994 RMK A01 T03520147  RH  030%=      5-min Rain = 0
KTUR 252035Z 13013G18KT 35/16 A2994 RMK A01 T03500157  RH  032%=      5-min Rain = 0
KTUR 252040Z 13015G22KT 34/16 A2993 RMK A01 T03430159  RH  034%=      5-min Rain = 0
KTUR 252045Z 13015G22KT 34/16 A2993 RMK A01 T03430163  RH  035%=      5-min Rain = 0
KTUR 252050Z 11016G22KT 35/18 A2993 RMK A01 T03470176  RH  037%=      5-min Rain = 0
KTUR 252055Z 14019G25KT 35/17 A2993 RMK A01 T03480173  RH  036%=      5-min Rain = 0
KTUR 252100Z 12016G22KT 34/17 A2993 RMK A01 T03430171  RH  037%=      5-min Rain = 0
KTUR 252105Z 12017G24KT 34/17 A2992 RMK A01 T03430172  RH  037%=      5-min Rain = 0
KTUR 252110Z 12017G23KT 34/17 A2992 RMK A01 T03430172  RH  037%=      5-min Rain = 0
KTUR 252115Z 13015G23KT 34/17 A2992 RMK A01 T03430171  RH  037%=      5-min Rain = 0
KTUR 252120Z 13019G26KT 34/17 A2992 RMK A01 T03430174  RH  038%=      5-min Rain = 0
KTUR 252125Z 11018G23KT 34/17 A2992 RMK A01 T03400174  RH  038%=      5-min Rain = 0
KTUR 252130Z 13019G24KT 34/17 A2991 RMK A01 T03420173  RH  038%=      5-min Rain = 0
KTUR 252135Z 13019G25KT 34/17 A2991 RMK A01 T03410169  RH  037%=      5-min Rain = 0
KTUR 252140Z 13020G26KT 34/17 A2991 RMK A01 T03400170  RH  037%=      5-min Rain = 0
KTUR 252145Z 13020G27KT 34/17 A2991 RMK A01 T03390171  RH  038%=      5-min Rain = 0
KTUR 252150Z 12020G26KT 34/17 A2991 RMK A01 T03370174  RH  039%=      5-min Rain = 0
KTUR 252155Z 13020KT 34/17 A2991 RMK A01 T03390171  RH  038%=      5-min Rain = 0
KTUR 252200Z 14018G23KT 34/17 A2991 RMK A01 T03410171  RH  037%=      5-min Rain = 0
KTUR 252205Z 13018KT 34/17 A2991 RMK A01 T03380173  RH  038%=      5-min Rain = 0
KTUR 252210Z 13019G25KT 34/17 A2991 RMK A01 T03400174  RH  038%=      5-min Rain = 0
KTUR 252215Z 13017G23KT 34/18 A2991 RMK A01 T03400175  RH  039%=      5-min Rain = 0
KTUR 252220Z 12020G25KT 34/17 A2991 RMK A01 T03380174  RH  039%=      5-min Rain = 0
KTUR 252225Z 13018G24KT 34/18 A2991 RMK A01 T03370175  RH  039%=      5-min Rain = 0
KTUR 252230Z 12020G25KT 33/18 A2991 RMK A01 T03340175  RH  040%=      5-min Rain = 0
KTUR 252235Z 12020G25KT 33/17 A2991 RMK A01 T03320174  RH  040%=      5-min Rain = 0
KTUR 252240Z 12019KT 33/17 A2991 RMK A01 T03310174  RH  040%=      5-min Rain = 0
KTUR 252245Z 14020G25KT 33/18 A2991 RMK A01 T03310175  RH  041%=      5-min Rain = 0
KTUR 252250Z 14019G25KT 33/17 A2991 RMK A01 T03300173  RH  040%=      5-min Rain = 0
KTUR 252255Z 13021G26KT 33/17 A299 RMK A01 T03310173  RH  040%=      5-min Rain = 0
KTUR 252300Z 13020G26KT 33/17 A2989 RMK A01 T03300173  RH  040%=      5-min Rain = 0
KTUR 252305Z 12022G28KT 33/17 A2989 RMK A01 T03280172  RH  040%=      5-min Rain = 0
KTUR 252310Z 12022KT 33/17 A299 RMK A01 T03270171  RH  040%=      5-min Rain = 0
KTUR 252315Z 12019G25KT 33/17 A2991 RMK A01 T03290172  RH  040%=      5-min Rain = 0
KTUR 252320Z 12021G28KT 32/17 A2991 RMK A01 T03240169  RH  041%=      5-min Rain = 0
KTUR 252325Z 12019G25KT 32/17 A2991 RMK A01 T03170168  RH  042%=      5-min Rain = 0
KTUR 252330Z 11018G24KT 31/17 A2991 RMK A01 T03130167  RH  043%=      5-min Rain = 0
KTUR 252335Z 11019G24KT 31/17 A2992 RMK A01 T03120166  RH  043%=      5-min Rain = 0
KTUR 252340Z 11017G22KT 31/17 A2992 RMK A01 T03110165  RH  043%=      5-min Rain = 0
KTUR 252345Z 11018G24KT 31/17 A2993 RMK A01 T03100165  RH  043%=      5-min Rain = 0
KTUR 252350Z 12016G22KT 31/17 A2993 RMK A01 T03080166  RH  043%=      5-min Rain = 0
KTUR 252355Z 11019KT 31/16 A2992 RMK A01 T03060164  RH  044%=      5-min Rain = 0
KTUR 260000Z 11017G22KT 30/16 A2992 RMK A01 T03040162  RH  043%=      5-min Rain = 0
KTUR 260005Z 12015G20KT 30/16 A2993 RMK A01 T03030161  RH  043%=      5-min Rain = 0
KTUR 260010Z 11015KT 30/16 A2994 RMK A01 T03020159  RH  043%=      5-min Rain = 0
KTUR 260015Z 11011G16KT 30/16 A2995 RMK A01 T03020159  RH  043%=      5-min Rain = 0
KTUR 260020Z 01008G30KT 30/16 A2998 RMK A01 T03010159  RH  043%=      5-min Rain = 0
KTUR 260025Z 33020G28KT 26/13 A2999 RMK A01 T02620127  RH  044%=      5-min Rain = 0
KTUR 260030Z 33021G29KT 25/12 A2999 RMK A01 T02490120  RH  045%=      5-min Rain = 0
KTUR 260035Z 30021G26KT 25/12 A3001 RMK A01 T02460121  RH  046%=      5-min Rain = 0
KTUR 260040Z 32019G27KT 24/12 A3002 RMK A01 T02440122  RH  047%=      5-min Rain = 0
KTUR 260045Z 32022G31KT 24/12 A3002 RMK A01 T02410124  RH  049%=      5-min Rain = 0
KTUR 260050Z 32015G21KT 24/13 A3003 RMK A01 T02380126  RH  051%=      5-min Rain = 0
KTUR 260055Z 34016G22KT 24/13 A3003 RMK A01 T02370128  RH  051%=      5-min Rain = 0
KTUR 260100Z 34015G20KT 24/13 A3003 RMK A01 T02350129  RH  052%=      5-min Rain = 0
KTUR 260105Z 00014KT 24/13 A3002 RMK A01 T02370125  RH  050%=      5-min Rain = 0
KTUR 260110Z 02012G18KT 24/12 A3002 RMK A01 T02380123  RH  049%=      5-min Rain = 0
KTUR 260115Z 02012KT 24/12 A3001 RMK A01 T02370124  RH  050%=      5-min Rain = 0
KTUR 260120Z 00016KT 24/13 A3001 RMK A01 T02350131  RH  053%=      5-min Rain = 0
KTUR 260125Z 01015G20KT 23/14 A3002 RMK A01 T02340135  RH  055%=      5-min Rain = 0
KTUR 260130Z 00016G23KT 24/13 A3001 RMK A01 T02360132  RH  053%=      5-min Rain = 0
KTUR 260135Z 02016KT 24/13 A3002 RMK A01 T02390130  RH  051%=      5-min Rain = 0
KTUR 260140Z 01018G23KT 24/13 A3002 RMK A01 T02410129  RH  050%=      5-min Rain = 0
KTUR 260145Z 02014G19KT 24/13 A3003 RMK A01 T02420129  RH  050%=      5-min Rain = 0
KTUR 260150Z 00016KT 24/13 A3004 RMK A01 T02430130  RH  050%=      5-min Rain = 0
KTUR 260155Z 00015KT 25/13 A3005 RMK A01 T02450130  RH  050%=      5-min Rain = 0
KTUR 260200Z 01015G20KT 25/13 A3005 RMK A01 T02470130  RH  049%=      5-min Rain = 0
KTUR 260205Z 01017KT 25/13 A3005 RMK A01 T02500128  RH  048%=      5-min Rain = 0
KTUR 260210Z 02021G28KT 25/12 A3004 RMK A01 T02540120  RH  044%=      5-min Rain = 0
KTUR 260215Z 02026G34KT 26/11 A3002 RMK A01 T02600110  RH  040%=      5-min Rain = 0
KTUR 260220Z 02027KT 26/11 A3001 RMK A01 T02640105  RH  037%=      5-min Rain = 0
KTUR 260225Z 02027G33KT 27/10 A3001 RMK A01 T02660103  RH  036%=      5-min Rain = 0
KTUR 260230Z 02023G32KT 27/10 A3002 RMK A01 T02680101  RH  036%=      5-min Rain = 0
KTUR 260235Z 03017G26KT 27/10 A3005 RMK A01 T02670102  RH  036%=      5-min Rain = 0
KTUR 260240Z 03011KT 27/10 A3005 RMK A01 T02670102  RH  036%=      5-min Rain = 0
KTUR 260245Z 03010G15KT 27/10 A3006 RMK A01 T02670102  RH  036%=      5-min Rain = 0
KTUR 260250Z 03005G11KT 27/10 A3007 RMK A01 T02670101  RH  036%=      5-min Rain = 0
KTUR 260255Z 03007G13KT 27/10 A3008 RMK A01 T02670101  RH  036%=      5-min Rain = 0
KTUR 260300Z 02013G21KT 27/10 A3007 RMK A01 T02650103  RH  037%=      5-min Rain = 0
KTUR 260305Z 02010G15KT 26/11 A3008 RMK A01 T02610108  RH  039%=      5-min Rain = 0
KTUR 260310Z 03010KT 26/11 A3008 RMK A01 T02570112  RH  041%=      5-min Rain = 0
KTUR 260315Z 01006KT 25/12 A3009 RMK A01 T02510123  RH  046%=      5-min Rain = 0
KTUR 260320Z 33007KT 25/12 A3008 RMK A01 T02460122  RH  047%=      5-min Rain = 0
KTUR 260325Z 30005KT 26/11 A3009 RMK A01 T02570113  RH  041%=      5-min Rain = 0
KTUR 260330Z 03006KT 25/13 A3008 RMK A01 T02510126  RH  047%=      5-min Rain = 0
KTUR 260335Z 05016G22KT 26/11 A3005 RMK A01 T02590109  RH  040%=      5-min Rain = 0
KTUR 260340Z 11019G24KT 24/13 A3002 RMK A01 T02420128  RH  050%=      5-min Rain = 0
KTUR 260345Z 08016KT 23/13 A3001 RMK A01 T02320128  RH  053%=      5-min Rain = 0
KTUR 260350Z 08012G21KT 24/12 A3003 RMK A01 T02380119  RH  048%=      5-min Rain = 0
KTUR 260355Z 10014KT 24/12 A3004 RMK A01 T02420117  RH  046%=      5-min Rain = 0
KTUR 260400Z 09009KT 24/12 A3004 RMK A01 T02400123  RH  049%=      5-min Rain = 0
KTUR 260405Z 09006KT 24/13 A3005 RMK A01 T02360128  RH  052%=      5-min Rain = 0
KTUR 260410Z 08006KT 23/13 A3005 RMK A01 T02340127  RH  052%=      5-min Rain = 0
KTUR 260415Z 08008KT 24/12 A3005 RMK A01 T02370124  RH  050%=      5-min Rain = 0
KTUR 260420Z 08008KT 24/12 A3005 RMK A01 T02380122  RH  049%=      5-min Rain = 0
KTUR 260425Z 06008KT 24/12 A3005 RMK A01 T02380123  RH  049%=      5-min Rain = 0
KTUR 260430Z 06009KT 24/12 A3005 RMK A01 T02410116  RH  046%=      5-min Rain = 0
KTUR 260435Z 04009KT 24/11 A3005 RMK A01 T02430114  RH  045%=      5-min Rain = 0
KTUR 260440Z 04007KT 24/12 A3005 RMK A01 T02410115  RH  046%=      5-min Rain = 0
KTUR 260445Z 05005KT 24/11 A3005 RMK A01 T02420111  RH  045%=      5-min Rain = 0
KTUR 260450Z 08006KT 24/12 A3005 RMK A01 T02410115  RH  046%=      5-min Rain = 0
KTUR 260455Z 09008KT 24/12 A3005 RMK A01 T02390118  RH  047%=      5-min Rain = 0

Page generated in 0.0186 seconds.